createdAt,value
2023-03-02T00:00:16.978Z,20.45
2023-03-02T00:02:45.490Z,19.05
2023-03-02T00:05:14.912Z,17.30
2023-03-02T00:07:43.054Z,17.20
2023-03-02T00:10:12.184Z,16.20
2023-03-02T00:12:40.263Z,16.20
2023-03-02T00:15:09.534Z,17.20
2023-03-02T00:17:38.907Z,15.35
2023-03-02T00:20:11.256Z,17.27
2023-03-02T00:22:39.545Z,18.90
2023-03-02T00:25:08.796Z,19.52
2023-03-02T00:27:36.898Z,16.42
2023-03-02T00:30:05.752Z,15.63
2023-03-02T00:32:34.444Z,16.35
2023-03-02T00:35:03.946Z,17.02
2023-03-02T00:37:32.045Z,16.38
2023-03-02T00:40:00.185Z,16.08
2023-03-02T00:42:28.167Z,16.00
2023-03-02T00:44:59.301Z,15.85
2023-03-02T00:47:27.426Z,16.35
2023-03-02T00:49:55.504Z,15.45
2023-03-02T00:52:25.010Z,15.82
2023-03-02T00:54:53.120Z,16.75
2023-03-02T00:57:21.110Z,17.02
2023-03-02T00:59:49.322Z,19.58
2023-03-02T01:02:17.389Z,18.70
2023-03-02T01:04:46.371Z,18.23
2023-03-02T01:07:16.580Z,18.88
2023-03-02T01:09:48.598Z,20.13
2023-03-02T01:12:16.761Z,20.38
2023-03-02T01:14:47.495Z,18.70
2023-03-02T01:17:16.408Z,19.63
2023-03-02T01:19:44.602Z,21.15
2023-03-02T01:22:12.601Z,20.30
2023-03-02T01:24:40.758Z,20.27
2023-03-02T01:27:12.719Z,21.25
2023-03-02T01:29:40.839Z,20.45
2023-03-02T01:32:10.197Z,20.77
2023-03-02T01:34:38.272Z,20.67
2023-03-02T01:37:06.264Z,20.30
2023-03-02T01:39:34.311Z,20.10
2023-03-02T01:42:02.463Z,19.80
2023-03-02T01:44:44.796Z,19.88
2023-03-02T01:47:17.878Z,19.90
2023-03-02T01:49:51.244Z,20.30
2023-03-02T01:52:20.249Z,19.83
2023-03-02T01:54:50.205Z,18.90
2023-03-02T01:57:22.590Z,18.92
2023-03-02T01:59:55.803Z,19.50
2023-03-02T02:02:24.554Z,17.75
2023-03-02T02:04:54.324Z,22.40
2023-03-02T02:07:22.395Z,20.65
2023-03-02T02:09:54.399Z,19.98
2023-03-02T02:12:24.515Z,18.35
2023-03-02T02:14:55.913Z,20.05
2023-03-02T02:17:24.057Z,19.45
2023-03-02T02:20:06.710Z,19.30
2023-03-02T02:22:48.021Z,19.13
2023-03-02T02:25:27.695Z,19.10
2023-03-02T02:27:58.505Z,21.20
2023-03-02T02:30:27.790Z,23.05
2023-03-02T02:32:58.423Z,23.42
2023-03-02T02:35:30.415Z,23.52
2023-03-02T02:38:04.504Z,26.08
2023-03-02T02:40:47.445Z,24.48
2023-03-02T02:43:19.942Z,25.35
2023-03-02T02:45:49.586Z,25.60
2023-03-02T02:48:20.690Z,25.23
2023-03-02T02:50:48.906Z,26.58
2023-03-02T02:53:22.630Z,26.42
2023-03-02T02:55:54.112Z,28.20
2023-03-02T02:58:31.402Z,27.83
2023-03-02T03:01:01.281Z,29.15
2023-03-02T03:03:32.127Z,28.10
2023-03-02T03:06:01.926Z,23.15
2023-03-02T03:08:57.118Z,23.27
2023-03-02T03:11:27.620Z,25.70
2023-03-02T03:14:03.073Z,25.15
2023-03-02T03:16:33.238Z,24.10
2023-03-02T03:19:07.740Z,24.02
2023-03-02T03:21:36.259Z,26.02
2023-03-02T03:24:04.331Z,25.83
2023-03-02T03:26:32.925Z,23.48
2023-03-02T03:29:02.864Z,25.02
2023-03-02T03:31:31.056Z,27.75
2023-03-02T03:34:00.638Z,25.73
2023-03-02T03:36:29.856Z,27.13
2023-03-02T03:38:59.345Z,26.02
2023-03-02T03:41:27.656Z,29.05
2023-03-02T03:43:56.022Z,27.25
2023-03-02T03:46:25.401Z,27.70
2023-03-02T03:48:53.666Z,27.00
2023-03-02T03:51:21.695Z,26.50
2023-03-02T03:53:59.766Z,25.40
2023-03-02T03:56:28.126Z,24.85
2023-03-02T03:59:06.836Z,27.25
2023-03-02T04:01:38.916Z,25.15
2023-03-02T04:04:09.659Z,23.35
2023-03-02T04:06:37.926Z,25.40
2023-03-02T04:09:06.831Z,24.90
2023-03-02T04:11:36.154Z,25.17
2023-03-02T04:14:04.851Z,26.10
2023-03-02T04:16:34.165Z,26.20
2023-03-02T04:19:04.828Z,27.83
2023-03-02T04:21:32.870Z,26.95
2023-03-02T04:24:00.963Z,24.00
2023-03-02T04:26:29.033Z,24.50
2023-03-02T04:28:57.119Z,25.95
2023-03-02T04:31:25.209Z,28.25
2023-03-02T04:33:53.386Z,27.15
2023-03-02T04:36:22.954Z,24.60
2023-03-02T04:38:51.742Z,28.80
2023-03-02T04:41:20.406Z,27.35
2023-03-02T04:43:48.471Z,28.17
2023-03-02T04:46:19.465Z,29.35
2023-03-02T04:48:47.549Z,28.80
2023-03-02T04:51:24.074Z,29.48
2023-03-02T04:53:53.725Z,29.80
2023-03-02T04:56:21.851Z,28.52
2023-03-02T04:58:50.097Z,32.30
2023-03-02T05:01:20.436Z,35.90
2023-03-02T05:03:48.921Z,30.60
2023-03-02T05:06:18.245Z,28.33
2023-03-02T05:08:46.528Z,28.02
2023-03-02T05:11:22.384Z,27.58
2023-03-02T05:13:50.797Z,23.65
2023-03-02T05:16:19.864Z,22.38
2023-03-02T05:18:48.821Z,20.95
2023-03-02T05:21:17.807Z,21.92
2023-03-02T05:23:46.119Z,22.60
2023-03-02T05:26:15.771Z,21.40
2023-03-02T05:28:44.857Z,21.10
2023-03-02T05:31:19.291Z,21.95
2023-03-02T05:33:47.539Z,21.90
2023-03-02T05:36:18.538Z,22.75
2023-03-02T05:38:47.371Z,25.70
2023-03-02T05:41:16.929Z,26.45
2023-03-02T05:43:45.645Z,29.90
2023-03-02T05:46:14.028Z,25.80
2023-03-02T05:48:42.245Z,26.05
2023-03-02T05:51:10.263Z,21.75
2023-03-02T05:53:38.461Z,21.55
2023-03-02T05:56:07.008Z,22.00
2023-03-02T05:58:36.492Z,20.38
2023-03-02T06:01:10.263Z,23.83
2023-03-02T06:03:38.360Z,27.25
2023-03-02T06:06:06.790Z,28.40
2023-03-02T06:08:34.817Z,28.38
2023-03-02T06:11:02.950Z,31.52
2023-03-02T06:13:31.057Z,29.60
2023-03-02T06:16:00.532Z,28.55
2023-03-02T06:18:28.671Z,33.35
2023-03-02T06:20:56.821Z,33.42
2023-03-02T06:23:24.862Z,30.30
2023-03-02T06:25:52.979Z,21.27
2023-03-02T06:28:22.069Z,19.40
2023-03-02T06:30:52.234Z,18.67
2023-03-02T06:33:22.123Z,19.50
2023-03-02T06:35:50.482Z,20.83
2023-03-02T06:38:18.659Z,25.02
2023-03-02T06:40:46.791Z,26.40
2023-03-02T06:43:15.160Z,29.08
2023-03-02T06:45:43.436Z,30.98
2023-03-02T06:48:11.551Z,30.63
2023-03-02T06:50:41.093Z,31.25
2023-03-02T06:53:09.161Z,31.40
2023-03-02T06:55:37.276Z,31.20
2023-03-02T06:58:05.329Z,30.40
2023-03-02T07:00:33.378Z,30.15
2023-03-02T07:03:01.507Z,28.17
2023-03-02T07:05:32.194Z,25.85
2023-03-02T07:08:01.777Z,23.58
2023-03-02T07:10:30.105Z,23.45
2023-03-02T07:12:58.436Z,24.50
2023-03-02T07:15:26.823Z,21.98
2023-03-02T07:17:54.792Z,22.33
2023-03-02T07:20:22.830Z,21.25
2023-03-02T07:22:50.891Z,19.05
2023-03-02T07:25:20.626Z,20.35
2023-03-02T07:27:48.751Z,21.42
2023-03-02T07:30:21.172Z,18.40
2023-03-02T07:32:49.392Z,18.63
2023-03-02T07:35:18.207Z,17.88
2023-03-02T07:37:46.392Z,15.32
2023-03-02T07:40:15.386Z,15.40
2023-03-02T07:42:44.985Z,18.55
2023-03-02T07:45:16.935Z,15.70
2023-03-02T07:47:45.085Z,15.07
2023-03-02T07:50:13.449Z,15.18
2023-03-02T07:52:41.570Z,15.20
2023-03-02T07:55:10.770Z,15.43
2023-03-02T07:57:38.845Z,19.05
2023-03-02T08:00:10.016Z,16.05
2023-03-02T08:02:38.091Z,14.48
2023-03-02T08:05:07.095Z,12.93
2023-03-02T08:07:35.262Z,13.07
2023-03-02T08:10:03.397Z,13.68
2023-03-02T08:12:31.826Z,12.82
2023-03-02T08:15:00.031Z,12.75
2023-03-02T08:17:29.501Z,12.00
2023-03-02T08:19:57.529Z,10.18
2023-03-02T08:22:25.571Z,10.90
2023-03-02T08:24:53.617Z,10.20
2023-03-02T08:27:21.717Z,12.45
2023-03-02T08:29:49.893Z,11.18
2023-03-02T08:32:17.943Z,10.75
2023-03-02T08:34:51.295Z,9.32
2023-03-02T08:37:19.510Z,8.50
2023-03-02T08:39:48.517Z,8.60
2023-03-02T08:42:17.046Z,10.18
2023-03-02T08:44:45.064Z,8.80
2023-03-02T08:47:13.502Z,9.52
2023-03-02T08:49:41.782Z,8.95
2023-03-02T08:52:11.288Z,8.10
2023-03-02T08:54:40.739Z,8.30
2023-03-02T08:57:11.841Z,6.47
2023-03-02T08:59:40.093Z,6.72
2023-03-02T09:02:08.584Z,7.70
2023-03-02T09:04:36.753Z,7.75
2023-03-02T09:07:05.029Z,7.50
2023-03-02T09:09:34.488Z,6.95
2023-03-02T09:12:02.556Z,8.32
2023-03-02T09:14:30.596Z,8.63
2023-03-02T09:16:58.633Z,6.97
2023-03-02T09:19:26.646Z,5.70
2023-03-02T09:21:54.675Z,6.00
2023-03-02T09:24:22.746Z,6.38
2023-03-02T09:26:52.188Z,7.90
2023-03-02T09:29:20.183Z,7.82
2023-03-02T09:31:48.278Z,7.80
2023-03-02T09:34:16.307Z,9.45
2023-03-02T09:36:44.308Z,6.95
2023-03-02T09:39:12.453Z,7.35
2023-03-02T09:42:03.861Z,6.80
2023-03-02T09:44:54.296Z,6.70
2023-03-02T09:47:35.542Z,6.05
2023-03-02T09:50:12.825Z,5.93
2023-03-02T09:52:47.716Z,5.63
2023-03-02T09:57:47.517Z,6.82
2023-03-02T10:00:21.874Z,6.65
2023-03-02T10:02:54.096Z,7.95
2023-03-02T10:05:25.485Z,8.23
2023-03-02T10:07:53.643Z,8.30
2023-03-02T10:10:28.289Z,8.95
2023-03-02T10:13:10.971Z,9.15
2023-03-02T10:15:43.632Z,7.20
2023-03-02T10:18:21.975Z,6.50
2023-03-02T10:20:55.848Z,5.97
2023-03-02T10:23:38.939Z,5.90
2023-03-02T10:26:16.925Z,7.72
2023-03-02T10:28:51.991Z,6.47
2023-03-02T10:31:28.005Z,7.25
2023-03-02T10:33:56.641Z,9.43
2023-03-02T10:36:26.778Z,10.00
2023-03-02T10:38:56.252Z,6.53
2023-03-02T10:41:28.810Z,6.97
2023-03-02T10:44:02.572Z,6.70
2023-03-02T10:46:42.155Z,6.40
2023-03-02T10:49:26.357Z,7.40
2023-03-02T10:52:00.149Z,9.02
2023-03-02T10:54:29.624Z,8.32
2023-03-02T10:57:00.104Z,7.00
2023-03-02T10:59:43.542Z,8.68
2023-03-02T11:02:18.285Z,8.45
2023-03-02T11:04:47.018Z,10.05
2023-03-02T11:07:18.470Z,7.70
2023-03-02T11:10:03.725Z,6.90
2023-03-02T11:15:18.218Z,7.55
2023-03-02T11:17:49.352Z,7.65
2023-03-02T11:20:23.296Z,6.50
2023-03-02T11:23:00.407Z,7.80
2023-03-02T11:25:33.694Z,6.68
2023-03-02T11:28:06.880Z,6.72
2023-03-02T11:30:41.778Z,7.50
2023-03-02T11:35:46.773Z,7.85
2023-03-02T11:38:21.134Z,7.75
2023-03-02T11:40:53.065Z,8.48
2023-03-02T11:43:21.201Z,7.75
2023-03-02T11:45:58.185Z,6.78
2023-03-02T11:48:30.377Z,7.10
2023-03-02T11:51:01.233Z,7.53
2023-03-02T11:53:37.211Z,7.88
2023-03-02T11:56:05.967Z,7.05
2023-03-02T11:58:35.259Z,7.32
2023-03-02T12:01:05.650Z,6.75
2023-03-02T12:03:42.655Z,7.80
2023-03-02T12:06:29.900Z,6.55
2023-03-02T12:09:13.029Z,7.45
2023-03-02T12:11:42.384Z,6.38
2023-03-02T12:14:30.524Z,7.07
2023-03-02T12:17:19.672Z,6.90
2023-03-02T12:19:48.848Z,6.85
2023-03-02T12:22:28.411Z,6.70
2023-03-02T12:25:06.474Z,6.00
2023-03-02T12:27:40.035Z,6.22
2023-03-02T12:30:28.283Z,6.78
2023-03-02T12:33:21.691Z,6.30
2023-03-02T12:35:57.114Z,7.03
2023-03-02T12:38:32.130Z,6.57
2023-03-02T12:41:29.785Z,5.63
2023-03-02T12:44:14.526Z,6.38
2023-03-02T12:46:47.066Z,6.10
2023-03-02T12:49:28.460Z,5.95
2023-03-02T12:51:59.009Z,6.28
2023-03-02T12:54:29.193Z,6.03
2023-03-02T12:57:06.338Z,5.78
2023-03-02T12:59:34.633Z,6.63
2023-03-02T13:02:14.036Z,5.95
2023-03-02T13:04:43.531Z,6.10
2023-03-02T13:07:20.428Z,6.85
2023-03-02T13:09:56.649Z,6.65
2023-03-02T13:12:28.292Z,6.90
2023-03-02T13:14:58.865Z,7.10
2023-03-02T13:17:30.971Z,5.80
2023-03-02T13:20:02.889Z,7.10
2023-03-02T13:22:31.240Z,6.00
2023-03-02T13:25:02.104Z,6.38
2023-03-02T13:27:31.266Z,5.57
2023-03-02T13:30:11.164Z,5.53
2023-03-02T13:32:43.273Z,6.18
2023-03-02T13:35:26.137Z,6.30
2023-03-02T13:38:01.647Z,5.78
2023-03-02T13:40:38.693Z,5.53
2023-03-02T13:43:21.832Z,5.28
2023-03-02T13:45:55.775Z,5.28
2023-03-02T13:48:24.388Z,6.65
2023-03-02T13:50:57.534Z,5.43
2023-03-02T13:53:26.470Z,5.10
2023-03-02T13:55:55.333Z,5.53
2023-03-02T13:58:25.438Z,5.03
2023-03-02T14:00:54.282Z,5.80
2023-03-02T14:03:28.167Z,5.70
2023-03-02T14:05:59.224Z,5.50
2023-03-02T14:08:27.303Z,5.55
2023-03-02T14:10:58.379Z,5.20
2023-03-02T14:13:36.937Z,5.05
2023-03-02T14:16:05.517Z,5.50
2023-03-02T14:18:41.796Z,5.20
2023-03-02T14:21:15.416Z,5.13
2023-03-02T14:23:43.584Z,5.40
2023-03-02T14:26:22.278Z,5.40
2023-03-02T14:28:59.909Z,4.97
2023-03-02T14:31:33.014Z,5.20
2023-03-02T14:34:01.293Z,5.40
2023-03-02T14:36:33.243Z,4.65
2023-03-02T14:39:04.216Z,4.40
2023-03-02T14:41:38.311Z,5.60
2023-03-02T14:44:11.925Z,6.20
2023-03-02T14:46:40.066Z,4.97
2023-03-02T14:49:08.229Z,5.57
2023-03-02T14:51:41.607Z,5.63
2023-03-02T14:54:15.841Z,5.28
2023-03-02T14:59:14.866Z,6.93
2023-03-02T15:01:44.809Z,6.38
2023-03-02T15:04:12.986Z,8.50
2023-03-02T15:06:44.605Z,7.78
2023-03-02T15:09:13.366Z,5.80
2023-03-02T15:11:41.420Z,5.65
2023-03-02T15:14:09.424Z,6.60
2023-03-02T15:16:37.487Z,6.72
2023-03-02T15:19:05.478Z,7.15
2023-03-02T15:21:33.935Z,9.48
2023-03-02T15:24:03.569Z,10.20
2023-03-02T15:26:31.542Z,10.70
2023-03-02T15:28:59.583Z,9.75
2023-03-02T15:31:28.335Z,7.65
2023-03-02T15:33:56.519Z,6.65
2023-03-02T15:36:25.745Z,6.30
2023-03-02T15:38:53.934Z,20.02
2023-03-02T15:41:23.507Z,8.23
2023-03-02T15:43:52.681Z,8.82
2023-03-02T15:46:20.850Z,8.68
2023-03-02T15:48:49.012Z,9.63
2023-03-02T15:51:17.153Z,7.93
2023-03-02T15:53:45.454Z,7.47
2023-03-02T15:56:16.064Z,8.43
2023-03-02T15:58:49.422Z,9.68
2023-03-02T16:01:17.973Z,10.80
2023-03-02T16:03:46.530Z,8.35
2023-03-02T16:06:15.832Z,11.20
2023-03-02T16:08:43.916Z,16.23
2023-03-02T16:11:12.260Z,19.88
2023-03-02T16:13:40.245Z,24.90
2023-03-02T16:16:11.181Z,32.92
2023-03-02T16:18:39.164Z,27.75
2023-03-02T16:21:07.439Z,47.97
2023-03-02T16:23:35.417Z,63.25
2023-03-02T16:26:10.853Z,78.10
2023-03-02T16:28:39.232Z,75.35
2023-03-02T16:31:11.192Z,76.35
2023-03-02T16:33:39.854Z,76.43
2023-03-02T16:36:09.306Z,66.57
2023-03-02T16:38:38.497Z,40.47
2023-03-02T16:41:13.207Z,31.20
2023-03-02T16:43:45.912Z,25.52
2023-03-02T16:46:16.163Z,20.73
2023-03-02T16:48:45.513Z,20.83
2023-03-02T16:51:14.385Z,16.80
2023-03-02T16:53:43.022Z,16.55
2023-03-02T16:56:13.057Z,15.75
2023-03-02T16:58:42.414Z,14.63
2023-03-02T17:01:12.749Z,14.20
2023-03-02T17:03:43.206Z,17.08
2023-03-02T17:06:13.849Z,17.25
2023-03-02T17:08:42.097Z,24.42
2023-03-02T17:11:10.133Z,37.25
2023-03-02T17:13:38.457Z,26.17
2023-03-02T17:16:07.065Z,21.17
2023-03-02T17:18:35.589Z,24.45
2023-03-02T17:21:06.465Z,51.47
2023-03-02T17:23:34.710Z,24.05
2023-03-02T17:26:02.720Z,12.23
2023-03-02T17:28:30.743Z,12.30
2023-03-02T17:30:58.895Z,17.17
2023-03-02T17:33:26.921Z,22.48
2023-03-02T17:35:54.978Z,29.05
2023-03-02T17:38:24.443Z,26.10
2023-03-02T17:40:52.564Z,27.27
2023-03-02T17:43:20.674Z,19.27
2023-03-02T17:45:48.845Z,20.05
2023-03-02T17:48:16.972Z,21.40
2023-03-02T17:50:45.042Z,25.80
2023-03-02T17:53:13.167Z,21.02
2023-03-02T17:55:42.484Z,19.77
2023-03-02T17:58:10.487Z,21.48
2023-03-02T18:00:40.553Z,17.95
2023-03-02T18:03:11.352Z,17.27
2023-03-02T18:05:39.452Z,15.82
2023-03-02T18:08:07.561Z,17.70
2023-03-02T18:10:35.586Z,25.85
2023-03-02T18:13:05.062Z,28.10
2023-03-02T18:15:33.553Z,30.35
2023-03-02T18:18:01.588Z,24.73
2023-03-02T18:20:29.707Z,26.20
2023-03-02T18:22:58.424Z,26.88
2023-03-02T18:25:26.745Z,26.40
2023-03-02T18:27:54.852Z,23.08
2023-03-02T18:30:25.052Z,21.33
2023-03-02T18:32:53.101Z,21.35
2023-03-02T18:35:21.388Z,21.83
2023-03-02T18:37:49.707Z,20.90
2023-03-02T18:40:18.384Z,26.42
2023-03-02T18:42:46.502Z,23.95
2023-03-02T18:45:22.126Z,34.50
2023-03-02T18:47:51.680Z,40.20
2023-03-02T18:50:20.295Z,26.13
2023-03-02T18:52:50.279Z,29.42
2023-03-02T18:55:18.628Z,33.17
2023-03-02T18:57:47.033Z,40.80
2023-03-02T19:00:20.091Z,55.42
2023-03-02T19:02:48.192Z,52.25
2023-03-02T19:05:19.431Z,46.75
2023-03-02T19:07:47.960Z,56.55
2023-03-02T19:10:16.321Z,47.53
2023-03-02T19:12:44.398Z,42.22
2023-03-02T19:15:13.804Z,38.88
2023-03-02T19:17:43.754Z,31.63
2023-03-02T19:20:15.517Z,33.17
2023-03-02T19:22:45.339Z,30.60
2023-03-02T19:25:13.521Z,37.08
2023-03-02T19:27:42.160Z,40.70
2023-03-02T19:30:15.795Z,41.35
2023-03-02T19:32:43.887Z,44.92
2023-03-02T19:35:14.779Z,36.95
2023-03-02T19:37:44.506Z,33.70
2023-03-02T19:40:13.896Z,38.50
2023-03-02T19:42:42.048Z,55.40
2023-03-02T19:45:13.499Z,49.47
2023-03-02T19:47:41.819Z,41.45
2023-03-02T19:50:11.209Z,42.63
2023-03-02T19:52:40.223Z,41.40
2023-03-02T19:55:12.460Z,39.58
2023-03-02T19:57:41.360Z,40.35
2023-03-02T20:00:16.485Z,36.40
2023-03-02T20:02:45.179Z,37.13
2023-03-02T20:05:13.312Z,35.72
2023-03-02T20:07:41.902Z,33.92
2023-03-02T20:10:12.941Z,33.00
2023-03-02T20:12:40.911Z,31.27
2023-03-02T20:15:09.642Z,30.55
2023-03-02T20:17:37.737Z,32.03
2023-03-02T20:20:07.392Z,31.00
2023-03-02T20:22:35.474Z,32.40
2023-03-02T20:25:03.649Z,32.55
2023-03-02T20:27:33.219Z,31.75
2023-03-02T20:30:01.373Z,38.55
2023-03-02T20:32:29.417Z,39.25
2023-03-02T20:34:57.488Z,36.50
2023-03-02T20:37:26.133Z,43.03
2023-03-02T20:39:54.874Z,40.08
2023-03-02T20:42:22.996Z,39.30
2023-03-02T20:44:53.516Z,37.33
2023-03-02T20:47:21.898Z,37.85
2023-03-02T20:49:50.138Z,42.97
2023-03-02T20:52:18.378Z,45.20
2023-03-02T20:54:46.522Z,41.17
2023-03-02T20:57:17.716Z,40.95
2023-03-02T20:59:46.435Z,42.88
2023-03-02T21:02:18.486Z,45.13
2023-03-02T21:04:47.063Z,42.75
2023-03-02T21:07:15.782Z,40.13
2023-03-02T21:09:44.837Z,37.00
2023-03-02T21:12:13.154Z,30.13
2023-03-02T21:14:41.714Z,38.22
2023-03-02T21:17:10.053Z,50.38
2023-03-02T21:19:39.559Z,49.65
2023-03-02T21:22:07.600Z,66.18
2023-03-02T21:24:35.677Z,75.13
2023-03-02T21:27:04.152Z,42.65
2023-03-02T21:29:34.643Z,43.38
2023-03-02T21:32:03.474Z,42.17
2023-03-02T21:34:31.560Z,42.60
2023-03-02T21:37:01.065Z,50.00
2023-03-02T21:39:29.172Z,74.82
2023-03-02T21:41:57.201Z,46.38
2023-03-02T21:44:25.808Z,35.25
2023-03-02T21:46:53.909Z,33.28
2023-03-02T21:49:23.405Z,30.95
2023-03-02T21:51:51.438Z,31.15
2023-03-02T21:54:20.922Z,34.88
2023-03-02T21:56:48.937Z,34.25
2023-03-02T21:59:16.981Z,32.83
2023-03-02T22:01:45.183Z,32.47
2023-03-02T22:04:13.260Z,30.65
2023-03-02T22:06:41.257Z,30.35
2023-03-02T22:09:09.290Z,31.67
2023-03-02T22:11:39.865Z,31.80
2023-03-02T22:14:13.564Z,32.65
2023-03-02T22:16:43.455Z,33.47
2023-03-02T22:19:25.332Z,31.85
2023-03-02T22:21:54.950Z,32.38
2023-03-02T22:24:25.633Z,31.13
2023-03-02T22:26:59.929Z,32.70
2023-03-02T22:29:29.957Z,32.00
2023-03-02T22:32:05.626Z,32.30
2023-03-02T22:34:33.686Z,30.83
2023-03-02T22:37:10.802Z,34.22
2023-03-02T22:39:41.066Z,36.70
2023-03-02T22:42:15.175Z,35.25
2023-03-02T22:44:43.495Z,39.03
2023-03-02T22:47:16.848Z,35.83
2023-03-02T22:49:45.809Z,38.75
2023-03-02T22:52:15.565Z,37.35
2023-03-02T22:54:43.724Z,37.83
2023-03-02T22:57:26.825Z,38.17
2023-03-02T23:00:18.428Z,38.15
2023-03-02T23:02:46.756Z,37.30
2023-03-02T23:05:26.298Z,41.00
2023-03-02T23:08:01.454Z,39.15
2023-03-02T23:10:29.671Z,38.42
2023-03-02T23:12:59.162Z,42.22
2023-03-02T23:15:27.249Z,39.95
2023-03-02T23:17:58.662Z,39.33
2023-03-02T23:20:27.027Z,40.05
2023-03-02T23:22:55.125Z,38.53
2023-03-02T23:25:23.150Z,40.97
2023-03-02T23:27:51.471Z,39.80
2023-03-02T23:30:22.580Z,38.53
2023-03-02T23:32:50.642Z,39.70
2023-03-02T23:35:18.849Z,38.47
2023-03-02T23:37:46.954Z,37.90
2023-03-02T23:40:15.494Z,40.15
2023-03-02T23:42:43.611Z,39.83
2023-03-02T23:45:11.794Z,40.67
2023-03-02T23:47:41.225Z,38.90
2023-03-02T23:50:10.736Z,34.92
2023-03-02T23:52:38.940Z,34.95
2023-03-02T23:55:08.031Z,35.15
2023-03-02T23:57:36.126Z,36.35
